CCNI Arauco — D5GZ3 — position and weather

sailwx.info

Track history (hours):
 
Tides and Currents Weather Stations Pressure Air Temp Water Temp Dewpoint Dewpoint Depression Visibility Wind Speed Wind Dir Waves Ship Positions

CCNI Arauco

Last reported at 2018-Jul-23 00:05 UTC. Time now 2018-Jul-23 17:38 UTC.
Position N 30°36' E 122°05'.

Length 300 m; draft 11.6 m.

Type: Ship. MMSI: 636016609.

Date/timePositionNaut miles runAvg speedWind from/ knotsBaromVisibWave heightAir tempDewpointWater temp
2018-Jul-23 00:05N 30°36' E 122°05'1 7.9
2018-Jul-22 23:54N 30°36' E 122°06'512.9
2018-Jul-22 23:29N 30°34' E 122°12'5 9.0
2018-Jul-22 22:58N 30°33' E 122°17'  
2018-Jul-15 12:15N 22°28' E 119°49'311.8
2018-Jul-15 11:58N 22°28' E 119°52'511.5
2018-Jul-15 11:30N 22°30' E 119°58'511.0
2018-Jul-15 11:00N 22°31' E 120°04'511.0
2018-Jul-15 10:30N 22°32' E 120°10'611.1
2018-Jul-15 10:00N 22°33' E 120°16'4 7.6
2018-Jul-15 09:30N 22°33' E 120°20'1 0.1
2018-Jul-14 23:54N 22°33' E 120°19'3 8.4
2018-Jul-14 23:30N 22°32' E 120°15'2 4.1
2018-Jul-14 22:59N 22°32' E 120°13'2 4.6
2018-Jul-14 22:30N 22°30' E 120°12'612.3
2018-Jul-14 22:00N 22°24' E 120°10'817.0
2018-Jul-14 21:30N 22°15' E 120°08'  
Track history (hours):
 
Tides and Currents Weather Stations Pressure Air Temp Water Temp Dewpoint Dewpoint Depression Visibility Wind Speed Wind Dir Waves Ship Positions

CCNI Arauco

Last reported at 2018-Jul-23 00:05 UTC. Time now 2018-Jul-23 17:38 UTC.
Position N 30°36' E 122°05'.

Length 300 m; draft 11.6 m.

Type: Ship. MMSI: 636016609.

Date/timePositionNaut miles runAvg speedWind from/ knotsBaromVisibWave heightAir tempDewpointWater temp
2018-Jul-23 00:05N 30°36' E 122°05'1 7.9
2018-Jul-22 23:54N 30°36' E 122°06'512.9
2018-Jul-22 23:29N 30°34' E 122°12'5 9.0
2018-Jul-22 22:58N 30°33' E 122°17'  
2018-Jul-15 12:15N 22°28' E 119°49'311.8
2018-Jul-15 11:58N 22°28' E 119°52'511.5
2018-Jul-15 11:30N 22°30' E 119°58'511.0
2018-Jul-15 11:00N 22°31' E 120°04'511.0
2018-Jul-15 10:30N 22°32' E 120°10'611.1
2018-Jul-15 10:00N 22°33' E 120°16'4 7.6
2018-Jul-15 09:30N 22°33' E 120°20'1 0.1
2018-Jul-14 23:54N 22°33' E 120°19'3 8.4
2018-Jul-14 23:30N 22°32' E 120°15'2 4.1
2018-Jul-14 22:59N 22°32' E 120°13'2 4.6
2018-Jul-14 22:30N 22°30' E 120°12'612.3
2018-Jul-14 22:00N 22°24' E 120°10'817.0
2018-Jul-14 21:30N 22°15' E 120°08'  

Dump ship's entire track history